Burgoon, Ohio
Current Conditions -  °F | °C
As of 12:53 PM on Thursday 30 Oct 2014 (Local Time) from KTDZ Reporting Station
Scattered Clouds Scattered Clouds  
Wind Chill: 48°   Ceiling: Unl
Heat Index: 48°   Visibility: 10mi
Dew Point: 34°   Wind: 3mph
Humidity: 58%   Direction: NA
Pressure: 30.15"   Gusts: NA
Location:  41.27°N, 83.25°W
Report Text: KTDZ 301653Z AUTO VRB03KT 10SM SCT029 09/01 A3015 RMK AO2 SLP212 T00890011 TSNO
Loading
Personal Weather Stations






























Interactive Weather Map
Tropical Storm Tracking
New forecast layout! Learn more

10-Day Weather Forecast

Advertisements
Track Severe Weather on mobile